Time;durP1;ratioP1;P1;durP2;ratioP2;P2;SDS_P1;SDS_P2;PMS_P1;PMS_P2;Temp;Humidity;BMP_temperature;BMP_pressure;BME280_temperature;BME280_humidity;BME280_pressure;Samples;Min_cycle;Max_cycle;Signal;HPM_P1;HPM_P2
2022/11/06 00:00:39;;;;;;;14.75;8.18;;;9.40;99.90;;;;;;5072508;28;20037;-57
2022/11/06 00:03:06;;;;;;;14.88;9.05;;;;;;;;;;5070262;28;20126;-58
2022/11/06 00:08:29;;;;;;;13.23;8.77;;;10.40;99.90;;;;;;5069941;28;20444;-58
2022/11/06 00:10:55;;;;;;;17.38;9.68;;;10.30;99.90;;;;;;5074690;28;20043;-58
2022/11/06 00:13:21;;;;;;;15.00;8.93;;;10.00;99.90;;;;;;5075154;28;20037;-58
2022/11/06 00:15:47;;;;;;;18.05;10.68;;;;;;;;;;5070815;28;20409;-58
2022/11/06 00:18:12;;;;;;;16.17;8.38;;;10.00;99.90;;;;;;5076906;28;20044;-58
2022/11/06 00:20:38;;;;;;;14.70;9.48;;;9.90;99.90;;;;;;5072014;28;20555;-58
2022/11/06 00:23:03;;;;;;;16.45;8.35;;;9.90;99.90;;;;;;5054531;28;20032;-59
2022/11/06 00:25:29;;;;;;;17.05;9.18;;;;;;;;;;5075131;28;20044;-59
2022/11/06 00:27:55;;;;;;;13.35;8.43;;;10.00;99.90;;;;;;5072829;28;20036;-58
2022/11/06 00:30:20;;;;;;;18.70;9.50;;;10.00;99.90;;;;;;5069939;28;20032;-58
2022/11/06 00:32:47;;;;;;;15.30;8.35;;;;;;;;;;5072221;28;20051;-58
2022/11/06 00:35:12;;;;;;;14.88;8.32;;;10.10;99.90;;;;;;5070223;28;20484;-59
2022/11/06 00:37:38;;;;;;;18.40;9.00;;;10.40;99.90;;;;;;5073661;22;20122;-62
2022/11/06 00:40:05;;;;;;;14.95;8.45;;;10.10;99.90;;;;;;5050445;28;20119;-62
2022/11/06 00:42:30;;;;;;;15.65;7.72;;;10.10;99.90;;;;;;5060852;28;20032;-62
2022/11/06 00:44:56;;;;;;;15.30;8.68;;;10.70;99.90;;;;;;5050817;28;20036;-63
2022/11/06 00:47:22;;;;;;;15.38;7.85;;;10.30;99.90;;;;;;5050147;28;20461;-63
2022/11/06 00:49:47;;;;;;;15.50;7.90;;;10.50;99.90;;;;;;5032421;28;20087;-63
2022/11/06 00:52:13;;;;;;;13.50;8.30;;;10.10;99.90;;;;;;5056616;28;20123;-63
2022/11/06 00:54:39;;;;;;;12.88;7.63;;;10.20;99.90;;;;;;5035843;28;20854;-62
2022/11/06 00:57:05;;;;;;;15.73;7.15;;;10.20;99.90;;;;;;5032183;28;20045;-63
2022/11/06 00:59:31;;;;;;;13.13;7.72;;;10.50;99.90;;;;;;5050303;28;20073;-63
2022/11/06 01:01:57;;;;;;;12.48;7.75;;;10.40;99.90;;;;;;5049494;28;20061;-63
2022/11/06 01:04:24;;;;;;;10.88;7.25;;;10.30;99.90;;;;;;5058015;28;20090;-63
2022/11/06 01:06:53;;;;;;;14.73;7.10;;;10.20;99.90;;;;;;5049172;28;20098;-62
2022/11/06 01:09:21;;;;;;;15.82;7.53;;;10.80;99.90;;;;;;5054437;28;20032;-61
2022/11/06 01:11:53;;;;;;;12.05;7.80;;;10.40;99.90;;;;;;5050022;28;20060;-63
2022/11/06 01:14:20;;;;;;;16.00;8.55;;;10.60;99.90;;;;;;5056691;28;20077;-63
2022/11/06 01:16:46;;;;;;;15.40;7.40;;;10.40;99.90;;;;;;5053191;28;20406;-63
2022/11/06 01:19:14;;;;;;;10.98;7.40;;;10.60;99.90;;;;;;5055806;28;20036;-63
2022/11/06 01:21:41;;;;;;;16.05;8.40;;;10.80;99.90;;;;;;5055175;28;20389;-62
2022/11/06 01:24:11;;;;;;;15.32;7.40;;;9.70;99.90;;;;;;5056976;28;20040;-63
2022/11/06 01:26:37;;;;;;;15.50;8.13;;;10.30;99.90;;;;;;5050083;28;20082;-63
2022/11/06 01:29:05;;;;;;;15.15;8.55;;;10.40;99.90;;;;;;5055906;28;20025;-63
2022/11/06 01:31:32;;;;;;;17.40;8.20;;;10.70;99.90;;;;;;5056717;28;20055;-62
2022/11/06 01:33:59;;;;;;;13.88;7.75;;;10.60;99.90;;;;;;5050032;28;20055;-63
2022/11/06 01:36:26;;;;;;;11.60;7.75;;;10.30;99.90;;;;;;5061575;28;20068;-62
2022/11/06 01:39:01;;;;;;;15.27;8.60;;;10.60;99.90;;;;;;5057176;28;20447;-63
2022/11/06 01:41:30;;;;;;;17.88;8.27;;;10.60;99.90;;;;;;5054100;28;20068;-62
2022/11/06 01:44:23;;;;;;;15.65;8.50;;;11.20;99.90;;;;;;5028645;28;20485;-63
2022/11/06 01:46:48;;;;;;;14.40;7.95;;;10.50;99.90;;;;;;5059630;28;20056;-63
2022/11/06 01:49:16;;;;;;;16.08;8.27;;;10.70;99.90;;;;;;5060048;28;20514;-63
2022/11/06 01:51:47;;;;;;;15.90;8.48;;;10.80;99.90;;;;;;5054246;28;20139;-62
2022/11/06 01:54:13;;;;;;;15.25;7.82;;;9.80;99.90;;;;;;5059507;28;20094;-63
2022/11/06 01:56:41;;;;;;;14.13;8.60;;;9.90;99.90;;;;;;5053192;28;20033;-63
2022/11/06 01:59:09;;;;;;;13.95;8.57;;;10.40;99.90;;;;;;5053722;28;20039;-62
2022/11/06 02:01:34;;;;;;;14.55;9.40;;;10.50;99.90;;;;;;5045850;28;20127;-62
2022/11/06 02:04:16;;;;;;;17.00;8.80;;;10.30;99.90;;;;;;5061720;28;20041;-62
2022/11/06 02:06:44;;;;;;;16.48;9.07;;;9.90;99.90;;;;;;5053394;28;20099;-62
2022/11/06 02:09:11;;;;;;;15.45;9.75;;;;;;;;;;5061201;28;20036;-62
2022/11/06 02:11:45;;;;;;;14.95;9.88;;;10.50;99.90;;;;;;5053476;28;20379;-62
2022/11/06 02:14:18;;;;;;;14.98;9.30;;;10.30;99.90;;;;;;5053458;28;20111;-63
2022/11/06 02:17:06;;;;;;;17.33;9.70;;;;;;;;;;5061758;28;20036;-62
2022/11/06 02:19:53;;;;;;;13.77;9.43;;;10.70;99.90;;;;;;5050352;28;20040;-62
2022/11/06 02:22:18;;;;;;;14.98;9.98;;;10.50;99.90;;;;;;5053980;28;20036;-63
2022/11/06 02:25:14;;;;;;;14.57;10.10;;;10.80;99.90;;;;;;5055536;28;20524;-62
2022/11/06 02:27:43;;;;;;;;;;;9.90;99.90;;;;;;5063122;28;20059;-63
2022/11/06 02:30:11;;;;;;;20.00;10.02;;;9.90;99.90;;;;;;5064561;28;19924;-61
2022/11/06 02:32:45;;;;;;;14.30;9.60;;;;;;;;;;5032708;28;20037;-62
2022/11/06 02:35:40;;;;;;;16.45;11.10;;;9.80;99.90;;;;;;5054011;28;20041;-62
2022/11/06 02:38:19;;;;;;;16.85;10.25;;;10.30;99.90;;;;;;5050796;28;20029;-62
2022/11/06 02:40:51;;;;;;;14.85;10.23;;;10.80;99.90;;;;;;5061000;28;20043;-62
2022/11/06 02:43:19;;;;;;;20.58;9.90;;;10.90;99.90;;;;;;5053372;28;20048;-63
2022/11/06 02:45:57;;;;;;;15.52;10.85;;;10.50;99.90;;;;;;5053031;28;20498;-62
2022/11/06 02:48:29;;;;;;;15.60;10.60;;;10.70;99.90;;;;;;5058122;28;20036;-63
2022/11/06 02:50:57;;;;;;;14.25;10.95;;;10.40;99.90;;;;;;5049108;28;20131;-62
2022/11/06 02:53:25;;;;;;;16.33;10.65;;;10.40;99.90;;;;;;5059552;28;20039;-63
2022/11/06 02:55:56;;;;;;;15.30;9.95;;;10.80;99.90;;;;;;5052183;28;20494;-62
2022/11/06 02:58:51;;;;;;;15.93;9.90;;;10.70;99.90;;;;;;5068031;28;20047;-62
2022/11/06 03:01:20;;;;;;;16.38;11.00;;;10.40;99.90;;;;;;5050079;28;20510;-62
2022/11/06 03:03:51;;;;;;;15.50;10.48;;;10.50;99.90;;;;;;5063789;28;20037;-62
2022/11/06 03:06:28;;;;;;;15.38;10.13;;;10.60;99.90;;;;;;5037641;28;20047;-62
2022/11/06 03:08:57;;;;;;;15.35;11.52;;;10.00;99.90;;;;;;5049554;28;20055;-62
2022/11/06 03:11:27;;;;;;;16.40;10.68;;;10.40;99.90;;;;;;5055364;28;20041;-62
2022/11/06 03:14:20;;;;;;;17.92;11.27;;;10.50;99.90;;;;;;5060411;28;20485;-61
2022/11/06 03:17:04;;;;;;;17.00;11.30;;;10.70;99.90;;;;;;5061384;28;20501;-61
2022/11/06 03:19:37;;;;;;;19.58;11.05;;;;;;;;;;5064293;28;20044;-62
2022/11/06 03:22:14;;;;;;;17.92;10.98;;;10.50;99.90;;;;;;5064947;28;20029;-61
2022/11/06 03:24:46;;;;;;;15.40;10.90;;;10.60;99.90;;;;;;5054891;28;20049;-62
2022/11/06 03:27:22;;;;;;;17.33;11.02;;;10.20;99.90;;;;;;5053902;28;20040;-62
2022/11/06 03:29:58;;;;;;;17.60;10.85;;;10.60;99.90;;;;;;5052740;28;20037;-61
2022/11/06 03:32:43;;;;;;;17.80;10.68;;;10.80;99.90;;;;;;5061803;28;20163;-61
2022/11/06 03:35:37;;;;;;;15.48;10.25;;;10.60;99.90;;;;;;5056047;28;20071;-61
2022/11/06 03:38:21;;;;;;;18.60;11.48;;;10.80;99.90;;;;;;5046334;28;20045;-61
2022/11/06 03:40:51;;;;;;;15.68;11.07;;;10.60;99.90;;;;;;5060532;28;20033;-62
2022/11/06 03:43:20;;;;;;;16.73;11.50;;;10.60;99.90;;;;;;5049266;28;20028;-62
2022/11/06 03:45:50;;;;;;;16.63;10.90;;;10.50;99.90;;;;;;5057812;28;20037;-61
2022/11/06 03:48:24;;;;;;;21.25;9.82;;;10.60;99.90;;;;;;5052272;28;20063;-62
2022/11/06 03:51:28;;;;;;;16.23;10.90;;;10.60;99.90;;;;;;5043953;28;20052;-62
2022/11/06 03:54:01;;;;;;;14.57;10.35;;;10.80;99.90;;;;;;4969551;28;20531;-62
2022/11/06 03:56:44;;;;;;;18.17;11.25;;;10.60;99.90;;;;;;5066954;28;20052;-61
2022/11/06 03:59:13;;;;;;;14.82;9.48;;;10.80;99.90;;;;;;5054059;28;20036;-62
2022/11/06 04:01:44;;;;;;;17.40;10.38;;;10.80;99.90;;;;;;5059695;28;20036;-62
2022/11/06 04:04:37;;;;;;;14.10;10.02;;;10.60;99.90;;;;;;5051272;28;20459;-60
2022/11/06 04:07:12;;;;;;;17.95;10.82;;;10.70;99.90;;;;;;5036728;28;20098;-62
2022/11/06 04:15:16;;;;;;;16.88;10.52;;;10.50;99.90;;;;;;5051542;28;20076;-61
2022/11/06 04:17:41;;;;;;;15.70;10.93;;;10.50;99.90;;;;;;5032921;28;20076;-60
2022/11/06 04:21:20;;;;;;;16.42;10.75;;;10.80;99.90;;;;;;5024723;28;20060;-61
2022/11/06 04:23:33;;;;;;;14.80;10.60;;;10.50;99.90;;;;;;5044505;28;20037;-61
2022/11/06 04:29:17;;;;;;;15.75;10.95;;;10.40;99.90;;;;;;5034569;28;20044;-61
2022/11/06 04:32:04;;;;;;;14.45;11.32;;;10.40;99.90;;;;;;5050716;28;20461;-61
2022/11/06 04:34:42;;;;;;;17.08;10.77;;;10.60;99.90;;;;;;5031209;28;20139;-61
2022/11/06 04:37:10;;;;;;;17.50;11.00;;;10.50;99.90;;;;;;5046027;28;20549;-61
2022/11/06 04:40:04;;;;;;;16.50;10.73;;;10.30;99.90;;;;;;5052111;28;20095;-61
2022/11/06 04:42:50;;;;;;;15.40;10.57;;;10.30;99.90;;;;;;5050280;28;20036;-61
2022/11/06 04:45:30;;;;;;;18.83;10.10;;;11.00;99.90;;;;;;5055668;28;20041;-61
2022/11/06 04:47:56;;;;;;;20.52;10.80;;;10.50;99.90;;;;;;5041827;28;20041;-60
2022/11/06 04:50:24;;;;;;;17.48;10.60;;;9.90;99.90;;;;;;5051331;28;20037;-60
2022/11/06 04:52:51;;;;;;;15.63;10.23;;;10.10;99.90;;;;;;5050203;28;20028;-61
2022/11/06 04:55:16;;;;;;;17.23;10.63;;;10.60;99.90;;;;;;5050663;28;20033;-61
2022/11/06 04:57:42;;;;;;;15.88;9.55;;;10.20;99.90;;;;;;5062935;28;20453;-61
2022/11/06 05:00:13;;;;;;;14.70;10.43;;;10.70;99.90;;;;;;5050655;28;20489;-62
2022/11/06 05:02:38;;;;;;;14.27;10.27;;;10.90;99.90;;;;;;5055544;28;20024;-62
2022/11/06 05:05:05;;;;;;;15.93;10.38;;;10.50;99.90;;;;;;5050480;28;20098;-62
2022/11/06 05:07:30;;;;;;;13.82;9.52;;;10.60;99.90;;;;;;5051264;28;20032;-61
2022/11/06 05:09:56;;;;;;;14.02;9.45;;;9.80;99.90;;;;;;5060803;28;20051;-61
2022/11/06 05:12:21;;;;;;;14.85;9.95;;;10.60;99.90;;;;;;5050345;28;20036;-61
2022/11/06 05:14:47;;;;;;;15.73;10.63;;;10.50;99.90;;;;;;5052908;28;20109;-61
2022/11/06 05:17:13;;;;;;;15.57;10.32;;;;;;;;;;5050156;28;20474;-61
2022/11/06 05:19:39;;;;;;;15.82;10.15;;;10.50;99.90;;;;;;5050070;28;20120;-60
2022/11/06 05:24:49;;;;;;;17.10;11.23;;;10.00;99.90;;;;;;5055319;28;20041;-61
2022/11/06 05:27:15;;;;;;;14.77;10.13;;;10.50;99.90;;;;;;5049815;28;20056;-61
2022/11/06 05:29:41;;;;;;;15.18;9.98;;;10.40;99.90;;;;;;5050276;28;20033;-61
2022/11/06 05:32:06;;;;;;;15.40;9.85;;;10.60;99.90;;;;;;5049935;28;20040;-61
2022/11/06 05:34:32;;;;;;;13.07;9.48;;;10.60;99.90;;;;;;5056685;28;20138;-61
2022/11/06 05:36:57;;;;;;;15.10;9.88;;;11.10;99.90;;;;;;5049382;28;20051;-61
2022/11/06 05:39:23;;;;;;;18.95;9.73;;;10.10;99.90;;;;;;5050117;28;20036;-61
2022/11/06 05:41:48;;;;;;;15.77;10.73;;;10.70;99.90;;;;;;5065179;28;20086;-61
2022/11/06 05:44:14;;;;;;;14.52;9.75;;;10.60;99.90;;;;;;5050299;28;20040;-61
2022/11/06 05:46:39;;;;;;;15.35;11.00;;;10.90;99.90;;;;;;5049753;28;20041;-60
2022/11/06 05:49:05;;;;;;;17.00;10.55;;;10.90;99.90;;;;;;5049258;28;20402;-60
2022/11/06 05:51:31;;;;;;;15.32;10.20;;;10.40;99.90;;;;;;5058701;28;20041;-61
2022/11/06 05:53:56;;;;;;;15.15;10.13;;;10.60;99.90;;;;;;5063195;28;20476;-60
2022/11/06 05:56:22;;;;;;;14.85;10.57;;;10.90;99.90;;;;;;5049627;28;20061;-60
2022/11/06 05:58:47;;;;;;;16.20;10.98;;;10.80;99.90;;;;;;5056758;28;20490;-60
2022/11/06 06:01:13;;;;;;;16.70;10.10;;;10.80;99.90;;;;;;5050029;28;20037;-60
2022/11/06 06:03:39;;;;;;;18.05;11.38;;;10.60;99.90;;;;;;5049646;28;20047;-60
2022/11/06 06:06:05;;;;;;;19.77;10.98;;;10.00;99.90;;;;;;5050435;28;20041;-60
2022/11/06 06:08:31;;;;;;;17.55;11.25;;;10.20;99.90;;;;;;5049046;28;20418;-59
2022/11/06 06:10:56;;;;;;;14.45;10.27;;;10.70;99.90;;;;;;5049239;28;20029;-59
2022/11/06 06:13:22;;;;;;;16.17;11.52;;;9.80;99.90;;;;;;5049214;28;20146;-59
2022/11/06 06:15:47;;;;;;;14.82;10.25;;;9.90;99.90;;;;;;5050393;28;20049;-60
2022/11/06 06:18:13;;;;;;;17.33;10.55;;;10.70;99.90;;;;;;5061567;28;20067;-60
2022/11/06 06:20:38;;;;;;;18.05;11.90;;;9.90;99.90;;;;;;5051555;28;20029;-61
2022/11/06 06:23:05;;;;;;;17.00;11.52;;;10.60;99.90;;;;;;5052015;28;20044;-60
2022/11/06 06:25:31;;;;;;;18.20;11.40;;;10.40;99.90;;;;;;5061295;28;20142;-60
2022/11/06 06:27:56;;;;;;;19.25;11.82;;;10.40;99.90;;;;;;5057284;28;20039;-59
2022/11/06 06:30:23;;;;;;;19.52;13.23;;;10.20;99.90;;;;;;5057971;28;20029;-61
2022/11/06 06:32:49;;;;;;;17.48;12.00;;;;;;;;;;5065185;28;20032;-60
2022/11/06 06:35:16;;;;;;;20.80;14.23;;;9.50;99.90;;;;;;5064521;28;20043;-59
2022/11/06 06:37:43;;;;;;;20.65;13.65;;;;;;;;;;5071175;22;20049;-55
2022/11/06 06:40:09;;;;;;;19.23;13.45;;;;;;;;;;5034717;28;20107;-55
2022/11/06 06:42:35;;;;;;;23.00;14.82;;;;;;;;;;5052278;28;20033;-55
2022/11/06 06:45:01;;;;;;;21.13;14.25;;;10.00;99.90;;;;;;5052899;28;20044;-57
2022/11/06 06:47:27;;;;;;;22.92;14.73;;;10.10;99.90;;;;;;5010186;28;20125;-54
2022/11/06 06:49:52;;;;;;;22.52;14.63;;;10.00;99.90;;;;;;5044933;28;20068;-56
2022/11/06 06:52:18;;;;;;;23.17;14.50;;;10.00;99.90;;;;;;5047697;28;20498;-55
2022/11/06 06:54:44;;;;;;;20.88;13.85;;;9.90;99.90;;;;;;5043717;28;20041;-56
2022/11/06 06:57:09;;;;;;;22.38;13.98;;;9.80;99.90;;;;;;5048137;28;20076;-56
2022/11/06 06:59:35;;;;;;;26.33;13.68;;;;;;;;;;5042899;28;20053;-56
2022/11/06 07:02:02;;;;;;;21.52;13.45;;;;;;;;;;5052529;28;20036;-57
2022/11/06 07:04:28;;;;;;;21.80;13.07;;;;;;;;;;5044492;28;20125;-56
2022/11/06 07:06:54;;;;;;;19.90;12.45;;;9.90;99.90;;;;;;5036264;28;20087;-57
2022/11/06 07:09:24;;;;;;;22.88;12.75;;;10.00;99.90;;;;;;5046961;28;20402;-56
2022/11/06 07:11:50;;;;;;;22.08;12.07;;;9.80;99.90;;;;;;5048444;28;20025;-56
2022/11/06 07:14:16;;;;;;;20.63;13.35;;;;;;;;;;5047136;28;20436;-54
2022/11/06 07:16:42;;;;;;;20.83;12.38;;;;;;;;;;5041919;28;20038;-56
2022/11/06 07:19:08;;;;;;;20.55;12.73;;;;;;;;;;5047258;28;20083;-57
2022/11/06 07:21:34;;;;;;;21.05;12.68;;;;;;;;;;5044292;28;20111;-56
2022/11/06 07:24:00;;;;;;;22.52;13.18;;;9.80;99.90;;;;;;5048567;28;20109;-56
2022/11/06 07:26:25;;;;;;;21.88;12.77;;;9.80;99.90;;;;;;5045021;28;20044;-56
2022/11/06 07:28:51;;;;;;;22.25;13.07;;;;;;;;;;5048675;28;20082;-57
2022/11/06 07:31:17;;;;;;;19.63;12.02;;;9.70;99.90;;;;;;5046071;28;20040;-57
2022/11/06 07:33:43;;;;;;;20.27;11.88;;;9.90;99.90;;;;;;5042003;28;20033;-56
2022/11/06 07:36:10;;;;;;;19.73;12.55;;;;;;;;;;5046775;28;20063;-57
2022/11/06 07:38:37;;;;;;;17.25;11.27;;;;;;;;;;5022265;28;20562;-58
2022/11/06 07:41:04;;;;;;;20.25;11.63;;;;;;;;;;5024454;28;20048;-58
2022/11/06 07:43:30;;;;;;;21.50;11.82;;;;;;;;;;5037119;28;20037;-58
2022/11/06 07:46:01;;;;;;;16.55;10.65;;;;;;;;;;5046949;28;20044;-58
2022/11/06 07:48:27;;;;;;;19.33;10.88;;;;;;;;;;5043376;28;20044;-58
2022/11/06 07:50:53;;;;;;;20.58;11.10;;;9.90;99.90;;;;;;5017021;28;20090;-58
2022/11/06 07:53:19;;;;;;;24.02;11.70;;;9.90;99.90;;;;;;5013759;28;20046;-58
2022/11/06 07:55:52;;;;;;;18.52;10.25;;;10.30;99.90;;;;;;5018058;28;20124;-57
2022/11/06 07:58:19;;;;;;;21.70;10.63;;;9.90;99.90;;;;;;5015528;28;20034;-58
2022/11/06 08:00:48;;;;;;;19.27;9.90;;;;;;;;;;5001351;28;20041;-58
2022/11/06 08:03:14;;;;;;;17.42;10.65;;;;;;;;;;5013536;28;20041;-58
2022/11/06 08:05:40;;;;;;;22.13;10.57;;;;;;;;;;5034657;28;20037;-58
2022/11/06 08:08:06;;;;;;;19.60;10.00;;;9.90;99.90;;;;;;5039849;28;20041;-58
2022/11/06 08:10:32;;;;;;;18.58;10.18;;;;;;;;;;5001351;28;20046;-58
2022/11/06 08:13:01;;;;;;;20.65;10.35;;;;;;;;;;5009076;28;20045;-58
2022/11/06 08:15:27;;;;;;;16.40;10.30;;;9.80;99.90;;;;;;5009721;28;20038;-59
2022/11/06 08:17:53;;;;;;;20.98;9.43;;;;;;;;;;5036272;28;20037;-58
2022/11/06 08:20:18;;;;;;;18.50;9.32;;;10.00;99.90;;;;;;5022827;28;20518;-58
2022/11/06 08:22:44;;;;;;;16.73;9.20;;;9.80;99.90;;;;;;5048610;28;20033;-58
2022/11/06 08:25:10;;;;;;;17.98;8.82;;;9.80;99.90;;;;;;5043364;28;20040;-58
2022/11/06 08:27:36;;;;;;;24.92;10.13;;;10.00;99.90;;;;;;5039746;28;20065;-58
2022/11/06 08:30:02;;;;;;;21.75;9.75;;;10.50;99.90;;;;;;5046222;28;20205;-58
2022/11/06 08:32:28;;;;;;;16.15;9.00;;;;;;;;;;5021868;28;20147;-58
2022/11/06 08:34:55;;;;;;;16.52;7.90;;;;;;;;;;5045714;28;20039;-58
2022/11/06 08:37:21;;;;;;;21.17;8.80;;;;;;;;;;5009168;28;20395;-58
2022/11/06 08:39:47;;;;;;;19.77;8.15;;;;;;;;;;5033122;28;20116;-58
2022/11/06 08:42:13;;;;;;;12.85;7.47;;;10.00;99.90;;;;;;5037727;28;20495;-58
2022/11/06 08:44:41;;;;;;;14.65;7.68;;;;;;;;;;5041198;28;20036;-58
2022/11/06 08:47:07;;;;;;;14.45;7.40;;;;;;;;;;5039147;28;20052;-58
2022/11/06 08:49:33;;;;;;;16.88;6.72;;;10.10;99.90;;;;;;5035347;28;20048;-58
2022/11/06 08:51:58;;;;;;;13.88;7.13;;;10.20;99.90;;;;;;5041037;28;20405;-58
2022/11/06 08:54:25;;;;;;;14.10;7.03;;;;;;;;;;5036176;28;20030;-58
2022/11/06 08:56:51;;;;;;;16.95;6.30;;;;;;;;;;5042294;28;20051;-58
2022/11/06 08:59:16;;;;;;;13.90;7.03;;;10.10;99.90;;;;;;5038959;28;20546;-58
2022/11/06 09:01:42;;;;;;;13.85;6.63;;;;;;;;;;5041213;28;20159;-58
2022/11/06 09:04:08;;;;;;;16.48;6.20;;;10.20;99.90;;;;;;5021667;28;20029;-58
2022/11/06 09:06:33;;;;;;;10.15;5.88;;;10.20;99.90;;;;;;5035008;28;20056;-58
2022/11/06 09:08:59;;;;;;;19.25;7.03;;;10.00;99.90;;;;;;5040367;28;20439;-58
2022/11/06 09:11:25;;;;;;;13.95;7.55;;;;;;;;;;5043804;28;20037;-58
2022/11/06 09:13:51;;;;;;;13.43;7.15;;;;;;;;;;5044660;28;20029;-58
2022/11/06 09:16:17;;;;;;;16.05;6.88;;;10.10;99.90;;;;;;5041662;28;20045;-58
2022/11/06 09:18:42;;;;;;;12.98;7.22;;;10.10;99.90;;;;;;5010762;28;20095;-58
2022/11/06 09:21:09;;;;;;;13.25;6.85;;;;;;;;;;5005725;28;20116;-58
2022/11/06 09:23:34;;;;;;;16.75;8.18;;;10.10;99.90;;;;;;5021280;28;20449;-58
2022/11/06 09:26:00;;;;;;;13.50;7.10;;;10.30;99.90;;;;;;5016773;28;20046;-58
2022/11/06 09:28:26;;;;;;;13.00;7.35;;;10.10;99.90;;;;;;5013834;28;20064;-58
2022/11/06 09:30:55;;;;;;;13.55;7.45;;;;;;;;;;5018609;28;20043;-59
2022/11/06 09:33:21;;;;;;;14.07;8.75;;;;;;;;;;5019264;28;20044;-60
2022/11/06 09:35:47;;;;;;;12.38;7.40;;;;;;;;;;5015075;28;20038;-61
2022/11/06 09:38:17;;;;;;;16.65;7.47;;;;;;;;;;5015661;28;20030;-62
2022/11/06 09:40:56;;;;;;;20.25;8.13;;;;;;;;;;5027490;28;20033;-62
2022/11/06 09:43:43;;;;;;;15.77;7.65;;;9.70;99.90;;;;;;5033763;28;20045;-63
2022/11/06 09:46:18;;;;;;;12.05;7.90;;;;;;;;;;5038155;28;20039;-64
2022/11/06 09:48:48;;;;;;;13.40;7.35;;;9.50;99.90;;;;;;5022319;28;20038;-63
2022/11/06 09:51:28;;;;;;;14.00;7.40;;;9.50;99.90;;;;;;5008682;28;20038;-63
2022/11/06 09:53:59;;;;;;;13.05;7.28;;;;;;;;;;5010905;28;20073;-62
2022/11/06 09:56:28;;;;;;;15.75;7.88;;;;;;;;;;5013692;28;20037;-62
2022/11/06 09:58:54;;;;;;;15.98;7.85;;;;;;;;;;5013176;28;20030;-61
2022/11/06 10:01:22;;;;;;;14.70;7.47;;;;;;;;;;5011873;28;20103;-61
2022/11/06 10:03:58;;;;;;;13.35;7.32;;;10.10;99.90;;;;;;5013619;28;20507;-61
2022/11/06 10:06:24;;;;;;;14.55;7.70;;;;;;;;;;5010644;28;20049;-60
2022/11/06 10:08:53;;;;;;;16.70;6.88;;;10.00;99.90;;;;;;5023250;28;20041;-60
2022/11/06 10:11:19;;;;;;;12.77;5.85;;;10.10;99.90;;;;;;5012313;28;20080;-60
2022/11/06 10:13:52;;;;;;;14.48;6.93;;;;;;;;;;5033558;28;20083;-60
2022/11/06 10:16:22;;;;;;;13.85;6.32;;;;;;;;;;5031214;28;20040;-60
2022/11/06 10:19:14;;;;;;;16.42;6.45;;;;;;;;;;5009749;28;20247;-60
2022/11/06 10:21:44;;;;;;;14.00;6.93;;;10.10;99.90;;;;;;4997221;28;20041;-60
2022/11/06 10:24:57;;;;;;;13.82;7.05;;;10.30;99.90;;;;;;5032518;28;20156;-60
2022/11/06 10:27:42;;;;;;;11.50;6.03;;;;;;;;;;4930807;29;20782;-61
2022/11/06 10:30:10;;;;;;;12.02;5.75;;;;;;;;;;5041052;28;20038;-60
2022/11/06 10:32:52;;;;;;;17.15;6.75;;;;;;;;;;5024278;28;20479;-60
2022/11/06 10:35:36;;;;;;;14.05;6.28;;;;;;;;;;5033953;28;20125;-60
2022/11/06 10:38:12;;;;;;;19.98;6.35;;;10.70;99.90;;;;;;5031828;28;20041;-62
2022/11/06 10:40:38;;;;;;;12.90;5.90;;;10.30;99.90;;;;;;5046430;28;20112;-62
2022/11/06 10:43:07;;;;;;;12.10;6.03;;;;;;;;;;5029125;28;20437;-63
2022/11/06 10:45:35;;;;;;;14.05;6.45;;;10.40;99.90;;;;;;5009890;28;20050;-62
2022/11/06 10:48:05;;;;;;;14.73;6.20;;;;;;;;;;5016952;28;21448;-64
2022/11/06 10:50:41;;;;;;;11.13;6.22;;;;;;;;;;5024901;28;20041;-64
2022/11/06 10:53:33;;;;;;;11.13;5.80;;;10.20;99.90;;;;;;5024012;28;20044;-64
2022/11/06 10:56:18;;;;;;;14.38;5.75;;;;;;;;;;5027940;28;20151;-64
2022/11/06 10:58:44;;;;;;;;;;;;;;;;;;5036536;28;20187;-62
2022/11/06 11:01:13;;;;;;;14.85;6.00;;;;;;;;;;5025703;28;19920;-62
2022/11/06 11:03:41;;;;;;;10.95;5.90;;;;;;;;;;5038400;28;20045;-61
2022/11/06 11:06:07;;;;;;;14.10;6.15;;;10.50;99.90;;;;;;5020853;28;20045;-61
2022/11/06 11:08:39;;;;;;;12.65;5.93;;;;;;;;;;5027096;28;20033;-61
2022/11/06 11:11:21;;;;;;;10.77;5.78;;;;;;;;;;5014097;28;20049;-61
2022/11/06 11:13:49;;;;;;;12.15;5.75;;;10.40;99.90;;;;;;5026733;28;20088;-61
2022/11/06 11:16:21;;;;;;;12.73;6.10;;;10.80;99.90;;;;;;5038913;28;20040;-60
2022/11/06 11:18:48;;;;;;;12.05;6.18;;;;;;;;;;5044189;28;20075;-60
2022/11/06 11:21:19;;;;;;;10.82;6.28;;;;;;;;;;5034484;28;20065;-60
2022/11/06 11:24:06;;;;;;;11.30;6.20;;;10.90;99.90;;;;;;5039260;28;20049;-59
2022/11/06 11:26:33;;;;;;;12.18;5.60;;;;;;;;;;5022620;28;20455;-59
2022/11/06 11:29:02;;;;;;;11.32;5.03;;;;;;;;;;5038074;28;20706;-59
2022/11/06 11:31:29;;;;;;;17.00;7.40;;;;;;;;;;5036830;28;20108;-59
2022/11/06 11:33:57;;;;;;;13.07;5.15;;;;;;;;;;5039172;28;20116;-59
2022/11/06 11:36:23;;;;;;;12.43;6.88;;;;;;;;;;5011084;28;20045;-60
2022/11/06 11:38:50;;;;;;;15.85;5.57;;;;;;;;;;5038108;28;20037;-59
2022/11/06 11:41:19;;;;;;;10.93;5.85;;;10.80;99.90;;;;;;5042837;28;20086;-58
2022/11/06 11:43:57;;;;;;;13.00;5.30;;;;;;;;;;5040718;28;20040;-58
2022/11/06 11:46:23;;;;;;;12.57;5.15;;;10.90;99.90;;;;;;5039306;28;20184;-59
2022/11/06 11:48:56;;;;;;;11.52;4.68;;;;;;;;;;5036966;28;20033;-57
2022/11/06 11:51:29;;;;;;;13.82;5.75;;;;;;;;;;5038093;28;20501;-58
2022/11/06 11:54:18;;;;;;;10.27;5.32;;;;;;;;;;5033463;28;20111;-57
2022/11/06 11:56:52;;;;;;;12.95;5.20;;;;;;;;;;5027417;28;20140;-58
2022/11/06 11:59:20;;;;;;;8.93;4.70;;;;;;;;;;5034369;28;20116;-58
2022/11/06 12:01:47;;;;;;;11.80;4.68;;;;;;;;;;5033490;28;20045;-58
2022/11/06 12:04:18;;;;;;;9.23;4.63;;;;;;;;;;5032530;28;20045;-58
2022/11/06 12:06:52;;;;;;;11.85;4.95;;;;;;;;;;5040499;28;20443;-58
2022/11/06 12:09:19;;;;;;;10.85;4.70;;;11.30;99.90;;;;;;5040403;28;20045;-58
2022/11/06 12:11:45;;;;;;;11.18;4.72;;;11.20;99.90;;;;;;5040454;28;20517;-57
2022/11/06 12:14:25;;;;;;;9.00;3.97;;;11.30;99.90;;;;;;5039956;28;20029;-57
2022/11/06 12:16:52;;;;;;;10.95;4.95;;;;;;;;;;5027208;28;20076;-57
2022/11/06 12:19:19;;;;;;;12.32;4.25;;;;;;;;;;5034739;28;20457;-58
2022/11/06 12:21:51;;;;;;;11.60;4.50;;;11.60;99.90;;;;;;5041215;28;20537;-58
2022/11/06 12:24:22;;;;;;;12.93;4.57;;;;;;;;;;5040813;28;20433;-58
2022/11/06 12:26:55;;;;;;;9.07;3.67;;;;;;;;;;5030903;28;20061;-58
2022/11/06 12:29:27;;;;;;;11.35;4.60;;;12.20;99.90;;;;;;5040807;28;20487;-58
2022/11/06 12:32:18;;;;;;;13.02;3.67;;;;;;;;;;5032849;28;20154;-58
2022/11/06 12:34:47;;;;;;;10.73;3.78;;;;;;;;;;5042851;28;20501;-58
2022/11/06 12:37:33;;;;;;;9.30;3.63;;;;;;;;;;5052870;22;20045;-59
2022/11/06 12:40:15;;;;;;;9.27;3.42;;;11.20;99.90;;;;;;4998448;28;20049;-61
2022/11/06 12:42:59;;;;;;;10.77;3.60;;;11.10;99.90;;;;;;5047342;28;20121;-61
2022/11/06 12:45:34;;;;;;;7.78;3.00;;;11.60;99.90;;;;;;5049967;28;20178;-61
2022/11/06 12:48:43;;;;;;;10.50;3.80;;;11.90;99.90;;;;;;5030667;28;20449;-61
2022/11/06 12:51:44;;;;;;;14.90;4.43;;;11.20;99.90;;;;;;5004386;28;20061;-61
2022/11/06 12:54:22;;;;;;;10.13;2.83;;;11.40;99.90;;;;;;5026214;28;20525;-61
2022/11/06 12:57:12;;;;;;;9.82;2.90;;;;;;;;;;5046229;28;20136;-61
2022/11/06 12:59:56;;;;;;;7.20;2.60;;;11.60;99.90;;;;;;5019486;28;20040;-61
2022/11/06 13:02:39;;;;;;;11.68;3.38;;;12.00;99.90;;;;;;5051496;28;20036;-61
2022/11/06 13:05:39;;;;;;;10.82;3.05;;;11.30;99.90;;;;;;5038584;28;20032;-61
2022/11/06 13:08:36;;;;;;;7.20;2.60;;;11.50;99.90;;;;;;5044994;28;20098;-61
2022/11/06 13:11:24;;;;;;;9.68;3.05;;;11.70;99.90;;;;;;5043665;28;20068;-61
2022/11/06 13:14:01;;;;;;;8.23;2.92;;;11.40;99.90;;;;;;5046829;28;20991;-61
2022/11/06 13:16:33;;;;;;;12.02;3.20;;;;;;;;;;5028073;28;20118;-61
2022/11/06 13:19:19;;;;;;;9.77;3.60;;;10.70;99.90;;;;;;5041759;28;20048;-61
2022/11/06 13:22:28;;;;;;;10.95;3.50;;;10.80;99.90;;;;;;5026447;28;20044;-61
2022/11/06 13:25:26;;;;;;;7.75;3.47;;;10.40;99.90;;;;;;5040563;28;20096;-61
2022/11/06 13:28:11;;;;;;;10.18;4.10;;;;;;;;;;5049836;28;20068;-61
2022/11/06 13:30:38;;;;;;;12.52;3.72;;;10.90;99.90;;;;;;5043508;28;20072;-61
2022/11/06 13:33:04;;;;;;;11.73;4.47;;;10.80;99.90;;;;;;5043916;28;20475;-61
2022/11/06 13:35:31;;;;;;;9.98;3.70;;;;;;;;;;5046350;28;20116;-61
2022/11/06 13:38:00;;;;;;;14.82;4.50;;;10.50;99.90;;;;;;5040668;28;20037;-62
2022/11/06 13:40:36;;;;;;;10.00;4.40;;;10.80;99.90;;;;;;5048149;28;20494;-62
2022/11/06 13:43:06;;;;;;;9.68;4.20;;;10.70;99.90;;;;;;5037601;28;20108;-62